EGNM - Leeds, Bradford
Distance from station: E 5mi, 14km
Updated: 07/20/2018 1:20pm
Partly Cloudy
Partly Cloudy
 Wind from WNW
Wind: WNW 7 mph , 11 km/h
Temperature: 57°F , 14°C
Dew Point: 55°F , 13°C
Humidity: 94%
Barometer: 29.91 inHg , 1013 hPa
Clouds: Partly Cloudy
Visibility: 6 miles , 10 km
Cloud details: Partly Cloudy 1200 ft
2018/07/20 20:20 EGNM 202020Z 29006KT 9999 SCT012 14/13 Q1013